Time;durP1;ratioP1;P1;durP2;ratioP2;P2;SDS_P1;SDS_P2;PMS_P1;PMS_P2;Temp;Humidity;BMP_temperature;BMP_pressure;BME280_temperature;BME280_humidity;BME280_pressure;Samples;Min_cycle;Max_cycle;Signal;HPM_P1;HPM_P2
2021/01/05 00:00:16;;;;;;;17.80;15.90;;;4.50;99.90;;;;;;2072875;28;20809;-82
2021/01/05 00:01:16;;;;;;;19.30;16.48;;;4.50;99.90;;;;;;2072574;28;20153;-83
2021/01/05 00:02:17;;;;;;;18.73;15.85;;;4.40;99.90;;;;;;2067916;28;20485;-82
2021/01/05 00:03:18;;;;;;;16.88;15.07;;;4.40;99.90;;;;;;2064323;28;20894;-82
2021/01/05 00:04:18;;;;;;;19.92;16.77;;;4.40;99.90;;;;;;2056275;28;20062;-82
2021/01/05 00:05:21;;;;;;;18.70;16.13;;;4.40;99.90;;;;;;2059713;28;20019;-82
2021/01/05 00:06:22;;;;;;;17.83;15.73;;;4.40;99.90;;;;;;2072301;28;20018;-83
2021/01/05 00:07:23;;;;;;;18.98;16.27;;;4.40;99.90;;;;;;2071823;28;20519;-82
2021/01/05 00:08:23;;;;;;;21.42;17.60;;;4.40;99.90;;;;;;2072757;28;20088;-81
2021/01/05 00:09:24;;;;;;;18.13;15.93;;;4.40;99.90;;;;;;2072937;28;20033;-82
2021/01/05 00:10:24;;;;;;;17.60;15.68;;;4.30;99.90;;;;;;2063613;28;20117;-82
2021/01/05 00:11:25;;;;;;;17.45;15.38;;;4.30;99.90;;;;;;2065538;28;20057;-82
2021/01/05 00:12:26;;;;;;;18.98;15.98;;;4.30;99.90;;;;;;2080084;28;20036;-82
2021/01/05 00:13:26;;;;;;;18.08;16.25;;;4.30;99.90;;;;;;2072035;28;20065;-81
2021/01/05 00:14:27;;;;;;;19.67;16.70;;;4.30;99.90;;;;;;2072951;28;20392;-82
2021/01/05 00:15:30;;;;;;;18.33;15.57;;;4.30;99.90;;;;;;2072779;28;20112;-82
2021/01/05 00:16:31;;;;;;;18.90;16.58;;;4.30;99.90;;;;;;2071961;28;20412;-80
2021/01/05 00:17:31;;;;;;;18.10;16.20;;;4.30;99.90;;;;;;2064168;28;20042;-81
2021/01/05 00:18:32;;;;;;;18.20;16.05;;;4.30;99.90;;;;;;2071862;28;20034;-82
2021/01/05 00:19:33;;;;;;;18.63;16.08;;;4.30;99.90;;;;;;2072268;28;20080;-82
2021/01/05 00:20:34;;;;;;;17.88;16.02;;;4.30;99.90;;;;;;2072691;28;20049;-81
2021/01/05 00:21:34;;;;;;;18.65;16.05;;;4.30;99.90;;;;;;2072017;28;20033;-81
2021/01/05 00:22:35;;;;;;;17.50;15.68;;;4.30;99.90;;;;;;2064378;28;20030;-81
2021/01/05 00:23:36;;;;;;;18.10;15.32;;;4.30;99.90;;;;;;2071485;28;20030;-81
2021/01/05 00:24:37;;;;;;;18.75;16.80;;;4.30;99.90;;;;;;2072305;28;20030;-81
2021/01/05 00:25:37;;;;;;;18.42;16.42;;;4.40;99.90;;;;;;2063219;28;20424;-80
2021/01/05 00:26:38;;;;;;;18.23;16.10;;;4.30;99.90;;;;;;2072092;28;20045;-81
2021/01/05 00:27:39;;;;;;;17.50;15.70;;;4.30;99.90;;;;;;2071729;28;20034;-81
2021/01/05 00:28:40;;;;;;;17.27;14.75;;;4.40;99.90;;;;;;2063922;28;20030;-81
2021/01/05 00:29:41;;;;;;;18.30;16.17;;;4.40;99.90;;;;;;2070862;28;20472;-82
2021/01/05 00:30:41;;;;;;;18.00;16.20;;;4.40;99.90;;;;;;2071973;28;20057;-82
2021/01/05 00:31:42;;;;;;;17.95;16.02;;;4.40;99.90;;;;;;2071801;28;20033;-83
2021/01/05 00:32:45;;;;;;;18.15;16.27;;;4.40;99.90;;;;;;2072945;28;20026;-80
2021/01/05 00:33:45;;;;;;;19.58;16.65;;;4.40;99.90;;;;;;2072044;28;20030;-82
2021/01/05 00:34:46;;;;;;;19.17;17.05;;;4.40;99.90;;;;;;2072748;28;20572;-81
2021/01/05 00:35:47;;;;;;;18.13;16.17;;;4.40;99.90;;;;;;2072107;28;20077;-81
2021/01/05 00:36:47;;;;;;;18.45;16.50;;;4.40;99.90;;;;;;2072638;28;20072;-83
2021/01/05 00:37:48;;;;;;;18.58;16.60;;;4.30;99.90;;;;;;2071902;28;20024;-83
2021/01/05 00:38:49;;;;;;;18.33;16.42;;;4.40;99.90;;;;;;2072311;28;20148;-82
2021/01/05 00:39:50;;;;;;;19.58;15.73;;;4.30;99.90;;;;;;2071275;28;20029;-82
2021/01/05 00:40:50;;;;;;;20.08;17.70;;;4.30;99.90;;;;;;2063383;28;20018;-80
2021/01/05 00:41:51;;;;;;;18.20;15.23;;;4.30;99.90;;;;;;2063382;28;20030;-80
2021/01/05 00:42:53;;;;;;;19.45;16.25;;;4.40;99.90;;;;;;2071477;28;20524;-82
2021/01/05 00:43:54;;;;;;;18.17;15.68;;;4.30;99.90;;;;;;2070578;28;20060;-81
2021/01/05 00:44:54;;;;;;;20.08;16.77;;;4.40;99.90;;;;;;2063454;28;20098;-81
2021/01/05 00:45:55;;;;;;;20.25;16.42;;;4.40;99.90;;;;;;2071420;28;20096;-81
2021/01/05 00:46:56;;;;;;;18.35;15.93;;;4.40;99.90;;;;;;2064297;28;20026;-81
2021/01/05 00:47:58;;;;;;;19.75;17.67;;;4.40;99.90;;;;;;2063139;28;20138;-80
2021/01/05 00:48:58;;;;;;;18.58;16.45;;;4.40;99.90;;;;;;2065449;28;20054;-81
2021/01/05 00:49:59;;;;;;;17.75;15.95;;;4.40;99.90;;;;;;2071977;28;20057;-81
2021/01/05 00:51:00;;;;;;;18.05;15.70;;;4.40;99.90;;;;;;2071431;28;20067;-81
2021/01/05 00:52:01;;;;;;;18.75;16.38;;;4.40;99.90;;;;;;2071107;28;20076;-81
2021/01/05 00:53:02;;;;;;;17.20;15.40;;;4.40;99.90;;;;;;2072059;28;20033;-82
2021/01/05 00:54:02;;;;;;;18.38;16.30;;;4.40;99.90;;;;;;2071170;28;20068;-82
2021/01/05 00:55:03;;;;;;;19.88;16.05;;;4.40;99.90;;;;;;2071400;28;20037;-80
2021/01/05 00:56:05;;;;;;;19.38;17.23;;;4.40;99.90;;;;;;2070611;28;20485;-81
2021/01/05 00:57:09;;;;;;;18.33;16.35;;;4.40;99.90;;;;;;2071858;28;20493;-80
2021/01/05 00:58:09;;;;;;;17.08;15.25;;;4.40;99.90;;;;;;2071866;28;20079;-81
2021/01/05 00:59:10;;;;;;;17.75;15.88;;;4.40;99.90;;;;;;2071282;28;20077;-81
2021/01/05 01:00:18;;;;;;;18.15;16.27;;;4.40;99.90;;;;;;2071280;28;20072;-83
2021/01/05 01:01:20;;;;;;;19.35;16.23;;;4.40;99.90;;;;;;2071569;28;20037;-80
2021/01/05 01:02:21;;;;;;;17.23;15.35;;;4.40;99.90;;;;;;2071074;28;20022;-82
2021/01/05 01:03:22;;;;;;;18.48;16.17;;;4.40;99.90;;;;;;2062352;28;20666;-83
2021/01/05 01:04:23;;;;;;;18.00;16.08;;;4.40;99.90;;;;;;2071269;28;20028;-81
2021/01/05 01:05:24;;;;;;;17.95;16.05;;;4.40;99.90;;;;;;2071944;28;20063;-82
2021/01/05 01:06:24;;;;;;;17.75;15.85;;;4.40;99.90;;;;;;2070847;28;20028;-81
2021/01/05 01:07:25;;;;;;;17.52;15.73;;;4.40;99.90;;;;;;2070857;28;20037;-80
2021/01/05 01:08:25;;;;;;;18.88;16.27;;;4.40;99.90;;;;;;2071823;28;20061;-80
2021/01/05 01:09:26;;;;;;;17.33;15.63;;;4.40;99.90;;;;;;2071989;28;20018;-82
2021/01/05 01:10:27;;;;;;;19.13;16.75;;;4.40;99.90;;;;;;2071784;28;20484;-82
2021/01/05 01:11:27;;;;;;;19.27;16.13;;;4.40;99.90;;;;;;2063942;28;20027;-80
2021/01/05 01:12:28;;;;;;;18.23;16.33;;;4.40;99.90;;;;;;2071919;28;20022;-81
2021/01/05 01:13:28;;;;;;;18.20;15.98;;;4.40;99.90;;;;;;2070138;28;20060;-82
2021/01/05 01:14:29;;;;;;;17.10;15.18;;;4.40;99.90;;;;;;2062786;28;20802;-81
2021/01/05 01:15:30;;;;;;;18.27;15.60;;;4.40;99.90;;;;;;2070862;28;20033;-81
2021/01/05 01:16:31;;;;;;;16.77;14.98;;;4.40;99.90;;;;;;2073058;28;20034;-81
2021/01/05 01:17:31;;;;;;;19.02;15.90;;;4.40;99.90;;;;;;2071159;28;20030;-80
2021/01/05 01:18:32;;;;;;;17.80;15.50;;;4.40;99.90;;;;;;2072224;28;20042;-82
2021/01/05 01:19:33;;;;;;;17.35;15.55;;;4.40;99.90;;;;;;2072903;28;20521;-80
2021/01/05 01:20:35;;;;;;;17.92;16.02;;;4.40;99.90;;;;;;2065171;28;20023;-80
2021/01/05 01:21:35;;;;;;;18.50;16.25;;;4.40;99.90;;;;;;2068439;28;20057;-80
2021/01/05 01:22:36;;;;;;;17.52;15.63;;;4.40;99.90;;;;;;2073508;28;20050;-81
2021/01/05 01:23:36;;;;;;;18.15;16.17;;;4.40;99.90;;;;;;2072776;28;20101;-81
2021/01/05 01:24:37;;;;;;;17.67;15.85;;;4.50;99.90;;;;;;2072503;28;20515;-80
2021/01/05 01:25:38;;;;;;;18.85;15.73;;;4.50;99.90;;;;;;2072147;28;20026;-80
2021/01/05 01:26:39;;;;;;;18.08;16.05;;;4.40;99.90;;;;;;2069848;28;20430;-80
2021/01/05 01:27:39;;;;;;;19.77;16.70;;;4.40;99.90;;;;;;2072823;28;20192;-81
2021/01/05 01:28:41;;;;;;;17.80;15.95;;;4.40;99.90;;;;;;2072488;28;20461;-80
2021/01/05 01:29:41;;;;;;;18.48;16.15;;;4.40;99.90;;;;;;2071639;28;20125;-81
2021/01/05 01:30:42;;;;;;;18.10;16.05;;;4.40;99.90;;;;;;2072893;28;20033;-81
2021/01/05 01:31:43;;;;;;;20.60;16.48;;;4.40;99.90;;;;;;2072406;28;20021;-82
2021/01/05 01:32:43;;;;;;;18.88;16.38;;;4.40;99.90;;;;;;2072596;28;20029;-82
2021/01/05 01:33:44;;;;;;;24.73;17.15;;;4.40;99.90;;;;;;2071366;28;20018;-81
2021/01/05 01:34:45;;;;;;;19.55;17.27;;;4.40;99.90;;;;;;2063933;28;20026;-81
2021/01/05 01:35:45;;;;;;;19.58;17.25;;;4.40;99.90;;;;;;2063588;28;20046;-81
2021/01/05 01:37:00;;;;;;;19.27;17.20;;;4.40;99.90;;;;;;2071938;28;20026;-80
2021/01/05 01:38:01;;;;;;;18.77;16.35;;;4.40;99.90;;;;;;2072659;28;20556;-80
2021/01/05 01:39:04;;;;;;;19.08;16.70;;;4.40;99.90;;;;;;2072987;28;20030;-81
2021/01/05 01:40:06;;;;;;;19.45;17.35;;;4.40;99.90;;;;;;2072499;28;20053;-81
2021/01/05 01:41:07;;;;;;;21.55;17.65;;;4.40;99.90;;;;;;2072562;28;20438;-80
2021/01/05 01:42:09;;;;;;;21.20;18.90;;;4.40;99.90;;;;;;2071412;28;20084;-80
2021/01/05 01:43:10;;;;;;;19.85;17.35;;;4.40;99.90;;;;;;2062962;28;20113;-80
2021/01/05 01:44:18;;;;;;;20.00;16.90;;;4.40;99.90;;;;;;2071889;28;20049;-80
2021/01/05 01:45:24;;;;;;;20.75;18.55;;;4.40;99.90;;;;;;2072481;28;20018;-81
2021/01/05 01:46:29;;;;;;;21.17;18.38;;;4.40;99.90;;;;;;2072606;28;20049;-80
2021/01/05 01:47:38;;;;;;;22.15;17.67;;;4.40;99.90;;;;;;2071645;28;20018;-80
2021/01/05 01:48:39;;;;;;;22.33;18.48;;;4.40;99.90;;;;;;2072065;28;20041;-82
2021/01/05 01:49:40;;;;;;;25.17;17.95;;;4.40;99.90;;;;;;2072147;28;20045;-80
2021/01/05 01:50:41;;;;;;;21.38;18.92;;;4.40;99.90;;;;;;2072337;28;20026;-81
2021/01/05 01:51:43;;;;;;;19.33;17.15;;;4.40;99.90;;;;;;2072613;28;20110;-80
2021/01/05 01:52:55;;;;;;;20.67;17.40;;;4.40;99.90;;;;;;2071573;28;20460;-80
2021/01/05 01:54:27;;;;;;;21.48;18.75;;;4.40;99.90;;;;;;2071704;28;20034;-80
2021/01/05 01:55:41;;;;;;;20.88;17.35;;;4.40;99.90;;;;;;2072227;28;20022;-80
2021/01/05 01:57:03;;;;;;;20.05;17.08;;;4.40;99.90;;;;;;2072313;28;20034;-80
2021/01/05 01:58:19;;;;;;;20.92;17.45;;;4.40;99.90;;;;;;2071840;28;20485;-81
2021/01/05 01:59:35;;;;;;;19.58;16.50;;;4.40;99.90;;;;;;2070156;28;20014;-80
2021/01/05 02:00:44;;;;;;;19.45;17.17;;;4.30;99.90;;;;;;2068279;28;20030;-81
2021/01/05 02:01:57;;;;;;;20.48;17.85;;;4.40;99.90;;;;;;2072314;28;20030;-80
2021/01/05 02:03:04;;;;;;;20.45;17.52;;;4.40;99.90;;;;;;2072229;28;20040;-81
2021/01/05 02:04:25;;;;;;;21.92;18.23;;;4.40;99.90;;;;;;2072864;28;20539;-80
2021/01/05 02:05:57;;;;;;;22.08;18.85;;;4.40;99.90;;;;;;2071755;28;20101;-80
2021/01/05 02:07:36;;;;;;;19.73;17.17;;;4.40;99.90;;;;;;2071803;28;20041;-83
2021/01/05 02:09:14;;;;;;;21.08;17.63;;;4.40;99.90;;;;;;2072849;28;20088;-81
2021/01/05 02:10:32;;;;;;;18.83;15.82;;;4.30;99.90;;;;;;2072731;28;20041;-83
2021/01/05 02:11:48;;;;;;;20.35;17.00;;;4.30;99.90;;;;;;2070673;28;20709;-80
2021/01/05 02:13:19;;;;;;;20.42;17.13;;;4.30;99.90;;;;;;2069786;28;20443;-81
2021/01/05 02:14:45;;;;;;;20.48;16.83;;;4.30;99.90;;;;;;2072487;28;20018;-80
2021/01/05 02:16:04;;;;;;;21.20;17.80;;;4.30;99.90;;;;;;2064207;28;20034;-81
2021/01/05 02:17:41;;;;;;;20.48;16.90;;;4.30;99.90;;;;;;2070925;28;20030;-80
2021/01/05 02:19:12;;;;;;;19.92;17.33;;;4.30;99.90;;;;;;2071594;28;20134;-80
2021/01/05 02:20:19;;;;;;;21.33;17.80;;;4.40;99.90;;;;;;2067066;28;20030;-80
2021/01/05 02:22:04;;;;;;;21.70;18.98;;;4.40;99.90;;;;;;2063942;28;20026;-81
2021/01/05 02:23:20;;;;;;;20.70;17.60;;;4.40;99.90;;;;;;2068380;28;20105;-80
2021/01/05 02:24:29;;;;;;;22.27;18.45;;;4.40;99.90;;;;;;2074052;28;20117;-82
2021/01/05 02:26:08;;;;;;;21.85;18.30;;;4.40;99.90;;;;;;2071727;28;20502;-82
2021/01/05 02:27:11;;;;;;;20.35;17.92;;;4.40;99.90;;;;;;2079184;28;20018;-80
2021/01/05 02:28:14;;;;;;;22.50;19.77;;;4.40;99.90;;;;;;2075724;28;20034;-82
2021/01/05 02:29:26;;;;;;;22.27;18.95;;;4.40;99.90;;;;;;2073994;28;20037;-82
2021/01/05 02:30:34;;;;;;;23.50;18.70;;;4.40;99.90;;;;;;2074172;28;20021;-82
2021/01/05 02:31:44;;;;;;;20.95;17.70;;;4.40;99.90;;;;;;2072796;28;20033;-82
2021/01/05 02:33:22;;;;;;;22.83;18.77;;;4.40;99.90;;;;;;2073518;28;20053;-81
2021/01/05 02:34:46;;;;;;;23.05;18.77;;;4.40;99.90;;;;;;2072516;28;20030;-82
2021/01/05 02:36:13;;;;;;;24.42;19.63;;;4.40;99.90;;;;;;2073374;28;20864;-81
2021/01/05 02:37:32;;;;;;;24.75;18.00;;;4.40;99.90;;;;;;2064559;28;20061;-81
2021/01/05 02:39:02;;;;;;;23.02;18.83;;;4.40;99.90;;;;;;2065182;28;20026;-81
2021/01/05 02:40:22;;;;;;;25.02;20.02;;;4.40;99.90;;;;;;2072900;28;20026;-81
2021/01/05 02:42:13;;;;;;;21.92;18.02;;;4.40;99.90;;;;;;2073503;28;20037;-81
2021/01/05 02:43:28;;;;;;;23.20;17.83;;;4.40;99.90;;;;;;2047595;29;20035;-79
2021/01/05 02:44:40;;;;;;;24.35;18.52;;;4.40;99.90;;;;;;2047093;29;20560;-81
2021/01/05 02:45:58;;;;;;;22.42;17.45;;;4.40;99.90;;;;;;2066965;28;20038;-81
2021/01/05 02:47:40;;;;;;;22.98;19.60;;;4.40;99.90;;;;;;2071774;28;20064;-81
2021/01/05 02:48:52;;;;;;;22.27;17.85;;;4.40;99.90;;;;;;2061784;28;20694;-81
2021/01/05 02:50:36;;;;;;;23.10;18.88;;;4.40;99.90;;;;;;2072672;28;20065;-81
2021/01/05 02:51:58;;;;;;;23.38;19.15;;;4.40;99.90;;;;;;2031955;29;20042;-81
2021/01/05 02:53:40;;;;;;;24.20;18.75;;;4.40;99.90;;;;;;2039461;29;20438;-82
2021/01/05 02:55:03;;;;;;;24.10;19.05;;;4.40;99.90;;;;;;2010749;29;20705;-81
2021/01/05 02:56:22;;;;;;;21.70;18.52;;;4.40;99.90;;;;;;2030203;29;20032;-81
2021/01/05 02:57:37;;;;;;;25.75;19.08;;;4.30;99.90;;;;;;2059002;28;20919;-81
2021/01/05 02:58:56;;;;;;;21.55;17.25;;;4.30;99.90;;;;;;2071844;28;20207;-82
2021/01/05 03:00:39;;;;;;;21.45;18.05;;;4.30;99.90;;;;;;2072451;28;20037;-81
2021/01/05 03:02:10;;;;;;;22.88;17.08;;;4.30;99.90;;;;;;2064657;28;20026;-81
2021/01/05 03:03:35;;;;;;;24.35;19.08;;;4.30;99.90;;;;;;2072828;28;20029;-80
2021/01/05 03:04:36;;;;;;;24.25;17.80;;;4.30;99.90;;;;;;2064962;28;20038;-82
2021/01/05 03:05:45;;;;;;;24.95;19.38;;;4.30;99.90;;;;;;2069925;28;20127;-82
2021/01/05 03:06:52;;;;;;;20.92;16.85;;;4.40;99.90;;;;;;2072851;28;20452;-81
2021/01/05 03:07:53;;;;;;;22.88;18.35;;;4.40;99.90;;;;;;2065266;28;20111;-81
2021/01/05 03:09:30;;;;;;;22.88;18.63;;;4.30;99.90;;;;;;2064731;28;20018;-82
2021/01/05 03:10:43;;;;;;;21.90;17.92;;;4.40;99.90;;;;;;2070489;28;20425;-83
2021/01/05 03:12:13;;;;;;;22.55;18.10;;;4.40;99.90;;;;;;2073415;28;20041;-81
2021/01/05 03:13:23;;;;;;;22.98;17.17;;;4.40;99.90;;;;;;2072640;28;20489;-81
2021/01/05 03:14:36;;;;;;;23.40;17.63;;;4.30;99.90;;;;;;2073535;28;20057;-81
2021/01/05 03:15:58;;;;;;;22.38;17.00;;;4.40;99.90;;;;;;2073293;28;20060;-80
2021/01/05 03:17:26;;;;;;;23.15;18.00;;;4.40;99.90;;;;;;2073588;28;20026;-83
2021/01/05 03:18:54;;;;;;;21.08;16.67;;;4.30;99.90;;;;;;2052066;28;610945;-83
2021/01/05 03:20:12;;;;;;;22.27;17.70;;;4.30;99.90;;;;;;2072562;28;20121;-81
2021/01/05 03:21:26;;;;;;;23.98;18.70;;;4.30;99.90;;;;;;2072829;28;20057;-82
2021/01/05 03:22:29;;;;;;;24.00;18.25;;;4.40;99.90;;;;;;2066299;28;20027;-81
2021/01/05 03:23:31;;;;;;;21.40;17.38;;;4.40;99.90;;;;;;2072523;28;20049;-83
2021/01/05 03:24:33;;;;;;;24.55;18.30;;;4.40;99.90;;;;;;2073574;28;20022;-82
2021/01/05 03:25:39;;;;;;;22.45;19.05;;;4.40;99.90;;;;;;2073456;28;20025;-80
2021/01/05 03:26:43;;;;;;;24.00;18.25;;;4.50;99.90;;;;;;2072630;28;20022;-80
2021/01/05 03:27:46;;;;;;;20.83;18.10;;;4.50;99.90;;;;;;2073085;28;20025;-82
2021/01/05 03:28:47;;;;;;;25.25;18.77;;;4.40;99.90;;;;;;2080778;28;20021;-81
2021/01/05 03:29:51;;;;;;;23.05;19.15;;;4.50;99.90;;;;;;2072118;28;20045;-82
2021/01/05 03:31:10;;;;;;;22.27;17.92;;;4.50;99.90;;;;;;2072121;28;20065;-80
2021/01/05 03:32:12;;;;;;;21.42;17.63;;;4.50;99.90;;;;;;2071973;28;20026;-81
2021/01/05 03:33:13;;;;;;;23.67;18.70;;;4.40;99.90;;;;;;2072295;28;20061;-82
2021/01/05 03:34:14;;;;;;;23.15;18.83;;;4.40;99.90;;;;;;2073587;28;20018;-81
2021/01/05 03:35:14;;;;;;;23.13;17.95;;;4.40;99.90;;;;;;2072863;28;20630;-80
2021/01/05 03:36:15;;;;;;;22.60;18.25;;;4.50;99.90;;;;;;2064427;28;20414;-80
2021/01/05 03:37:16;;;;;;;21.83;18.50;;;4.40;99.90;;;;;;2072798;28;20026;-81
2021/01/05 03:38:16;;;;;;;22.15;18.20;;;4.40;99.90;;;;;;2072612;28;20481;-80
2021/01/05 03:39:17;;;;;;;24.90;18.75;;;4.40;99.90;;;;;;2064849;28;20476;-81
2021/01/05 03:40:18;;;;;;;22.85;18.98;;;4.40;99.90;;;;;;2072702;28;20455;-80
2021/01/05 03:41:18;;;;;;;22.25;17.65;;;4.40;99.90;;;;;;2071813;28;20685;-80
2021/01/05 03:42:19;;;;;;;23.45;18.92;;;4.40;99.90;;;;;;2072285;28;20030;-80
2021/01/05 03:43:19;;;;;;;25.10;19.38;;;4.40;99.90;;;;;;2071951;28;20029;-80
2021/01/05 03:44:20;;;;;;;23.75;18.42;;;4.40;99.90;;;;;;2072459;28;20026;-80
2021/01/05 03:45:26;;;;;;;23.17;17.58;;;4.40;99.90;;;;;;2073021;28;20101;-82
2021/01/05 03:46:29;;;;;;;25.52;18.92;;;4.40;99.90;;;;;;2064478;28;20026;-81
2021/01/05 03:47:29;;;;;;;23.77;19.45;;;4.40;99.90;;;;;;2068927;28;20547;-81
2021/01/05 03:48:30;;;;;;;24.38;19.38;;;4.40;99.90;;;;;;2072048;28;20113;-81
2021/01/05 03:49:31;;;;;;;25.55;18.27;;;4.40;99.90;;;;;;2072890;28;20030;-82
2021/01/05 03:50:31;;;;;;;25.45;18.95;;;4.40;99.90;;;;;;2073083;28;20036;-80
2021/01/05 03:51:34;;;;;;;25.67;18.63;;;4.40;99.90;;;;;;2072631;28;20030;-80
2021/01/05 03:52:35;;;;;;;25.05;20.27;;;4.40;99.90;;;;;;2064617;28;20096;-80
2021/01/05 03:53:35;;;;;;;24.90;19.63;;;4.40;99.90;;;;;;2063954;28;20165;-80
2021/01/05 03:54:36;;;;;;;25.13;20.52;;;4.40;99.90;;;;;;2071836;28;20103;-80
2021/01/05 03:55:37;;;;;;;27.23;19.98;;;4.40;99.90;;;;;;2073384;28;20041;-82
2021/01/05 03:56:37;;;;;;;27.00;20.98;;;4.40;99.90;;;;;;2072511;28;20041;-80
2021/01/05 03:57:38;;;;;;;23.05;19.15;;;4.30;99.90;;;;;;2073346;28;20025;-82
2021/01/05 03:58:39;;;;;;;25.13;20.00;;;4.40;99.90;;;;;;2072051;28;20038;-80
2021/01/05 03:59:39;;;;;;;25.73;19.67;;;4.40;99.90;;;;;;2072407;28;20531;-82
2021/01/05 04:00:40;;;;;;;25.23;19.48;;;4.30;99.90;;;;;;2072064;28;20376;-81
2021/01/05 04:01:50;;;;;;;28.15;18.52;;;4.30;99.90;;;;;;2071306;28;20025;-81
2021/01/05 04:02:50;;;;;;;23.52;19.10;;;4.30;99.90;;;;;;2056078;28;20584;-81
2021/01/05 04:03:51;;;;;;;24.10;18.95;;;4.30;99.90;;;;;;2066218;28;20026;-81
2021/01/05 04:04:52;;;;;;;27.38;20.70;;;4.30;99.90;;;;;;2070819;28;20111;-81
2021/01/05 04:05:53;;;;;;;24.95;19.52;;;4.30;99.90;;;;;;2070963;28;20030;-81
2021/01/05 04:06:53;;;;;;;26.38;19.25;;;4.30;99.90;;;;;;2070587;28;20053;-81
2021/01/05 04:07:55;;;;;;;23.90;18.92;;;4.30;99.90;;;;;;2071435;28;20108;-80
2021/01/05 04:08:55;;;;;;;22.98;18.85;;;4.30;99.90;;;;;;2071387;28;20731;-80
2021/01/05 04:09:56;;;;;;;24.50;19.08;;;4.40;99.90;;;;;;2071508;28;20034;-79
2021/01/05 04:10:57;;;;;;;26.55;18.58;;;4.40;99.90;;;;;;2071396;28;20837;-80
2021/01/05 04:11:57;;;;;;;25.67;20.02;;;4.40;99.90;;;;;;2071305;28;20112;-81
2021/01/05 04:12:58;;;;;;;22.90;18.65;;;4.40;99.90;;;;;;2071167;28;20029;-82
2021/01/05 04:13:59;;;;;;;23.67;19.05;;;4.40;99.90;;;;;;2071471;28;20022;-80
2021/01/05 04:14:59;;;;;;;26.45;19.65;;;4.40;99.90;;;;;;2071521;28;20029;-80
2021/01/05 04:16:00;;;;;;;22.85;19.65;;;4.40;99.90;;;;;;2071328;28;20026;-80
2021/01/05 04:17:00;;;;;;;23.42;18.98;;;4.40;99.90;;;;;;2071489;28;20072;-80
2021/01/05 04:18:01;;;;;;;27.85;20.05;;;4.40;99.90;;;;;;2071229;28;20044;-80
2021/01/05 04:19:01;;;;;;;22.55;17.98;;;4.40;99.90;;;;;;2071327;28;20026;-80
2021/01/05 04:20:04;;;;;;;23.48;18.77;;;4.40;99.90;;;;;;2070347;28;20026;-80
2021/01/05 04:21:05;;;;;;;24.85;19.15;;;4.50;99.90;;;;;;2062862;28;20030;-79
2021/01/05 04:22:05;;;;;;;24.25;19.77;;;4.50;99.90;;;;;;2062512;28;20022;-81
2021/01/05 04:23:06;;;;;;;23.98;19.20;;;4.50;99.90;;;;;;2064429;28;20018;-80
2021/01/05 04:24:07;;;;;;;26.20;19.77;;;4.50;99.90;;;;;;2071553;28;20030;-80
2021/01/05 04:25:09;;;;;;;24.67;19.92;;;4.50;99.90;;;;;;2071612;28;20037;-80
2021/01/05 04:26:10;;;;;;;25.88;20.08;;;4.50;99.90;;;;;;2071200;28;20057;-80
2021/01/05 04:27:10;;;;;;;24.95;19.95;;;4.50;99.90;;;;;;2063481;28;20026;-79
2021/01/05 04:28:11;;;;;;;27.88;21.25;;;4.40;99.90;;;;;;2070512;28;20042;-79
2021/01/05 04:29:13;;;;;;;25.80;20.17;;;4.40;99.90;;;;;;2062866;28;20022;-80
2021/01/05 04:30:40;;;;;;;26.13;19.48;;;4.40;99.90;;;;;;2062567;28;20034;-79
2021/01/05 04:31:42;;;;;;;27.00;19.83;;;4.40;99.90;;;;;;2066655;28;20033;-80
2021/01/05 04:32:43;;;;;;;27.02;19.60;;;4.40;99.90;;;;;;2063477;28;20520;-81
2021/01/05 04:33:44;;;;;;;24.88;19.88;;;4.40;99.90;;;;;;2062353;28;20022;-81
2021/01/05 04:34:44;;;;;;;25.75;19.08;;;4.40;99.90;;;;;;2070847;28;20030;-80
2021/01/05 04:35:45;;;;;;;24.40;19.95;;;4.40;99.90;;;;;;2079240;28;20626;-80
2021/01/05 04:36:45;;;;;;;23.40;18.85;;;4.40;99.90;;;;;;2071200;28;20480;-80
2021/01/05 04:37:46;;;;;;;24.02;20.08;;;4.30;99.90;;;;;;2071492;28;20408;-80
2021/01/05 04:38:47;;;;;;;26.50;19.58;;;4.40;99.90;;;;;;2071609;28;20036;-80
2021/01/05 04:39:47;;;;;;;22.88;18.00;;;4.30;99.90;;;;;;2072028;28;20034;-80
2021/01/05 04:40:48;;;;;;;24.67;19.35;;;4.30;99.90;;;;;;2071789;28;20477;-80
2021/01/05 04:42:03;;;;;;;25.25;20.27;;;4.30;99.90;;;;;;2072410;28;20022;-80
2021/01/05 04:43:39;;;;;;;26.23;18.98;;;4.30;99.90;;;;;;2071648;28;20137;-80
2021/01/05 04:45:01;;;;;;;26.60;19.42;;;4.30;99.90;;;;;;2072371;28;20049;-82
2021/01/05 04:46:07;;;;;;;24.20;19.30;;;4.30;99.90;;;;;;2071603;28;20077;-79
2021/01/05 04:47:29;;;;;;;27.15;18.95;;;4.20;99.90;;;;;;2072124;28;20524;-82
2021/01/05 04:48:48;;;;;;;25.88;19.42;;;4.30;99.90;;;;;;2071670;28;20421;-81
2021/01/05 04:50:10;;;;;;;25.90;18.95;;;4.30;99.90;;;;;;2071825;28;20025;-82
2021/01/05 04:51:35;;;;;;;24.80;18.92;;;4.30;99.90;;;;;;2072136;28;20450;-80
2021/01/05 04:52:56;;;;;;;27.23;20.02;;;4.30;99.90;;;;;;2071820;28;20061;-80
2021/01/05 04:54:15;;;;;;;26.58;19.98;;;4.30;99.90;;;;;;2072949;28;20040;-80
2021/01/05 04:55:24;;;;;;;24.48;19.95;;;4.30;99.90;;;;;;2072091;28;20069;-80
2021/01/05 04:56:39;;;;;;;25.42;20.23;;;4.30;99.90;;;;;;2064693;28;20045;-82
2021/01/05 04:57:43;;;;;;;25.17;20.02;;;4.30;99.90;;;;;;2070230;28;20034;-79
2021/01/05 04:58:58;;;;;;;27.38;20.05;;;4.30;99.90;;;;;;2072758;28;20468;-80
2021/01/05 05:00:25;;;;;;;25.85;19.48;;;4.30;99.90;;;;;;2078988;28;20034;-82
2021/01/05 05:01:33;;;;;;;28.38;21.45;;;4.30;99.90;;;;;;2070542;28;20049;-82
2021/01/05 05:02:45;;;;;;;27.42;20.23;;;4.30;99.90;;;;;;2074969;28;20512;-82
2021/01/05 05:04:01;;;;;;;29.13;20.55;;;4.30;99.90;;;;;;2072832;28;20033;-82
2021/01/05 05:05:23;;;;;;;26.63;20.33;;;4.30;99.90;;;;;;2074257;28;20034;-82
2021/01/05 05:06:38;;;;;;;27.83;20.27;;;4.40;99.90;;;;;;2073274;28;20018;-82
2021/01/05 05:08:12;;;;;;;26.40;20.17;;;4.40;99.90;;;;;;2064598;28;20033;-82
2021/01/05 05:09:23;;;;;;;29.25;18.70;;;4.40;99.90;;;;;;2073197;28;20029;-82
2021/01/05 05:10:38;;;;;;;26.38;19.95;;;4.40;99.90;;;;;;2072931;28;20034;-80
2021/01/05 05:12:12;;;;;;;27.35;21.23;;;4.40;99.90;;;;;;2073143;28;20088;-81
2021/01/05 05:13:25;;;;;;;26.10;19.25;;;4.40;99.90;;;;;;2073016;28;20049;-82
2021/01/05 05:14:48;;;;;;;25.23;20.02;;;4.30;99.90;;;;;;2073168;28;20457;-81
2021/01/05 05:16:13;;;;;;;28.55;20.00;;;4.30;99.90;;;;;;2073193;28;20057;-81
2021/01/05 05:17:56;;;;;;;26.50;19.58;;;4.30;99.90;;;;;;2073196;28;20026;-82
2021/01/05 05:19:02;;;;;;;26.38;19.25;;;4.30;99.90;;;;;;2072427;28;20034;-82
2021/01/05 05:20:20;;;;;;;25.85;20.38;;;4.30;99.90;;;;;;2072576;28;20149;-82
2021/01/05 05:21:37;;;;;;;25.50;19.23;;;4.30;99.90;;;;;;2072491;28;20036;-82
2021/01/05 05:22:53;;;;;;;25.98;19.30;;;4.30;99.90;;;;;;2072328;28;20018;-82
2021/01/05 05:24:30;;;;;;;25.55;19.83;;;4.30;99.90;;;;;;2071502;28;20025;-82
2021/01/05 05:25:40;;;;;;;25.10;18.83;;;4.30;99.90;;;;;;2068790;28;20081;-82
2021/01/05 05:27:16;;;;;;;25.20;19.38;;;4.30;99.90;;;;;;2071788;28;20072;-82
2021/01/05 05:28:26;;;;;;;27.00;19.10;;;4.30;99.90;;;;;;2071808;28;20093;-84
2021/01/05 05:29:47;;;;;;;28.88;20.30;;;4.20;99.90;;;;;;2074023;28;20033;-82
2021/01/05 05:30:48;;;;;;;24.58;18.73;;;4.30;99.90;;;;;;2077337;28;20104;-82
2021/01/05 05:31:50;;;;;;;25.17;20.33;;;4.20;99.90;;;;;;2072769;28;20033;-82
2021/01/05 05:32:55;;;;;;;26.80;19.92;;;4.30;99.90;;;;;;2071729;28;20057;-82
2021/01/05 05:34:04;;;;;;;26.75;20.95;;;4.30;99.90;;;;;;2072184;28;20025;-82
2021/01/05 05:35:04;;;;;;;27.15;19.35;;;4.30;99.90;;;;;;2079523;28;20033;-80
2021/01/05 05:36:08;;;;;;;26.90;19.98;;;4.30;99.90;;;;;;2072403;28;20026;-82
2021/01/05 05:37:15;;;;;;;27.05;20.67;;;4.30;99.90;;;;;;2064535;28;20102;-83
2021/01/05 05:38:48;;;;;;;28.02;21.17;;;4.30;99.90;;;;;;2071729;28;20109;-82
2021/01/05 05:40:09;;;;;;;29.25;20.42;;;4.30;99.90;;;;;;2072754;28;20736;-82
2021/01/05 05:41:41;;;;;;;26.88;19.42;;;4.30;99.90;;;;;;2064064;28;20058;-80
2021/01/05 05:43:07;;;;;;;27.23;19.83;;;4.30;99.90;;;;;;2065897;28;20061;-82
2021/01/05 05:44:33;;;;;;;28.67;20.77;;;4.20;99.90;;;;;;2072270;28;20025;-81
2021/01/05 05:45:40;;;;;;;25.10;19.13;;;4.20;99.90;;;;;;2072982;28;20018;-81
2021/01/05 05:46:49;;;;;;;27.27;20.67;;;4.20;99.90;;;;;;2064533;28;20026;-82
2021/01/05 05:47:58;;;;;;;28.70;19.95;;;4.20;99.90;;;;;;2070553;28;20026;-82
2021/01/05 05:49:30;;;;;;;28.35;20.30;;;4.20;99.90;;;;;;2071928;28;20029;-80
2021/01/05 05:51:05;;;;;;;29.60;19.75;;;4.30;99.90;;;;;;2066800;28;20054;-81
2021/01/05 05:52:31;;;;;;;27.80;19.95;;;4.20;99.90;;;;;;2072343;28;20430;-81